createdAt,value
2023-01-29T00:03:00.380Z,4058.2
2023-01-29T00:09:13.504Z,4061.4
2023-01-29T00:14:52.816Z,4059.7
2023-01-29T00:20:32.709Z,4062.2
2023-01-29T00:26:08.522Z,4056.7
2023-01-29T00:32:09.314Z,4057.4
2023-01-29T00:37:45.020Z,4059.4
2023-01-29T00:43:22.589Z,4059.2
2023-01-29T00:49:08.617Z,4055.5
2023-01-29T00:54:53.682Z,4056
2023-01-29T01:00:38.235Z,4055.8
2023-01-29T01:06:14.577Z,4060.2
2023-01-29T01:11:51.041Z,4053.2
2023-01-29T01:17:26.766Z,4055.8
2023-01-29T01:23:03.335Z,4055.8
2023-01-29T01:29:04.882Z,4057.2
2023-01-29T01:34:40.192Z,4054.5
2023-01-29T01:40:43.066Z,4054.5
2023-01-29T01:46:26.348Z,4057.9
2023-01-29T01:52:10.551Z,4054.8
2023-01-29T01:57:49.206Z,4050
2023-01-29T02:03:45.985Z,4050.1
2023-01-29T02:09:21.015Z,4052
2023-01-29T02:14:58.804Z,4054.5
2023-01-29T02:20:35.067Z,4053.8
2023-01-29T02:26:13.026Z,4053.2
2023-01-29T02:31:48.628Z,4049.1
2023-01-29T02:37:25.213Z,4050.2
2023-01-29T02:43:01.361Z,4049.3
2023-01-29T02:48:41.624Z,4053
2023-01-29T02:54:25.404Z,4047.3
2023-01-29T03:00:05.960Z,4050.1
2023-01-29T03:07:04.078Z,4048.6
2023-01-29T03:12:49.322Z,4048.8
2023-01-29T03:18:51.537Z,4048.1
2023-01-29T03:24:28.029Z,4047.5
2023-01-29T03:31:26.353Z,4048.8
2023-01-29T03:37:08.543Z,4050.3
2023-01-29T03:42:45.220Z,4050.3
2023-01-29T03:48:24.261Z,4046.1
2023-01-29T03:54:20.635Z,4045.6
2023-01-29T04:00:10.041Z,4047.6
2023-01-29T04:05:45.265Z,4046
2023-01-29T04:11:20.452Z,4046.1
2023-01-29T04:17:13.004Z,4047.6
2023-01-29T04:22:54.667Z,4046
2023-01-29T04:28:33.749Z,4050.1
2023-01-29T04:34:11.653Z,4045.3
2023-01-29T04:39:48.872Z,4043.8
2023-01-29T04:45:23.682Z,4044.5
2023-01-29T04:51:19.949Z,4046.6
2023-01-29T04:57:03.876Z,4043.5
2023-01-29T05:03:00.404Z,4043.1
2023-01-29T05:08:40.635Z,4041.3
2023-01-29T05:14:16.518Z,4045.1
2023-01-29T05:19:54.553Z,4043.1
2023-01-29T05:25:42.102Z,4043.1
2023-01-29T05:31:28.462Z,4044.8
2023-01-29T05:37:16.098Z,4044.6
2023-01-29T05:42:54.788Z,4044.5
2023-01-29T05:48:47.362Z,4042.9
2023-01-29T05:54:46.332Z,4040.9
2023-01-29T06:00:25.102Z,4041.6
2023-01-29T06:06:18.036Z,4041.3
2023-01-29T06:12:06.718Z,4040.3
2023-01-29T06:17:44.501Z,4042.1
2023-01-29T06:23:27.669Z,4041.9
2023-01-29T06:29:08.184Z,4041.6
2023-01-29T06:34:43.627Z,4040.4
2023-01-29T06:40:20.206Z,4039.8
2023-01-29T06:45:55.823Z,4038.8
2023-01-29T06:51:32.429Z,4039.9
2023-01-29T06:57:16.437Z,4038.1
2023-01-29T07:02:57.184Z,4038.4
2023-01-29T07:08:43.261Z,4040.6
2023-01-29T07:14:26.526Z,4039.8
2023-01-29T07:20:02.726Z,4040.3
2023-01-29T07:25:40.603Z,4038.1
2023-01-29T07:31:17.748Z,4037.1
2023-01-29T07:36:52.992Z,4040.3
2023-01-29T07:42:49.091Z,4037.1
2023-01-29T07:48:33.217Z,4039.4
2023-01-29T07:54:09.402Z,4036.9
2023-01-29T07:59:44.810Z,4034.4
2023-01-29T08:05:19.668Z,4034.1
2023-01-29T08:10:54.557Z,4030.7
2023-01-29T08:16:31.555Z,4033.1
2023-01-29T08:22:07.857Z,4028.7
2023-01-29T08:27:54.346Z,4029
2023-01-29T08:33:57.170Z,4031.1
2023-01-29T08:39:36.501Z,4035.2
2023-01-29T08:45:12.439Z,4028
2023-01-29T08:50:48.488Z,4035.4
2023-01-29T08:56:26.931Z,4037.1
2023-01-29T09:02:02.873Z,4043.3
2023-01-29T09:07:58.691Z,4049.5
2023-01-29T09:13:42.372Z,4048.3
2023-01-29T09:19:18.297Z,4056.7
2023-01-29T09:24:53.598Z,4047.5
2023-01-29T09:30:28.594Z,4068.4
2023-01-29T09:36:07.781Z,4062.9
2023-01-29T09:41:42.756Z,4070.4
2023-01-29T09:47:20.288Z,4095.9
2023-01-29T09:53:07.823Z,4104.6
2023-01-29T09:58:47.301Z,4084.5
2023-01-29T10:04:23.100Z,4072.9
2023-01-29T10:09:59.413Z,4072.3
2023-01-29T10:15:34.251Z,4079.8
2023-01-29T10:21:13.161Z,4081.1
2023-01-29T10:26:49.275Z,4085.5
2023-01-29T10:32:24.317Z,4109.3
2023-01-29T10:38:08.781Z,4124.5
2023-01-29T10:44:02.359Z,4124.4
2023-01-29T10:49:37.874Z,4116.3
2023-01-29T10:55:29.832Z,4104.4
2023-01-29T11:01:05.204Z,4121
2023-01-29T11:07:09.512Z,4118.2
2023-01-29T11:12:45.122Z,4119
2023-01-29T11:18:20.219Z,4120.2
2023-01-29T11:23:56.216Z,4112.5
2023-01-29T11:29:32.808Z,4120.7
2023-01-29T11:35:09.133Z,4120.8
2023-01-29T11:40:45.554Z,4109.4
2023-01-29T11:46:32.577Z,4106.6
2023-01-29T11:52:07.877Z,4103.4
2023-01-29T11:57:58.885Z,4099.7
2023-01-29T12:03:48.910Z,4099.9
2023-01-29T12:09:27.844Z,4098.2
2023-01-29T12:15:02.814Z,4092.7
2023-01-29T12:20:38.213Z,4097.9
2023-01-29T12:26:15.439Z,4093.4
2023-01-29T12:31:50.770Z,4096
2023-01-29T12:37:36.905Z,4097.6
2023-01-29T12:43:32.593Z,4092.2
2023-01-29T12:49:07.766Z,4094.4
2023-01-29T12:54:43.076Z,4094.2
2023-01-29T13:00:20.245Z,4087.5
2023-01-29T13:05:59.012Z,4093.5
2023-01-29T13:11:37.593Z,4091.7
2023-01-29T13:17:40.660Z,4090.4
2023-01-29T13:23:19.075Z,4092.2
2023-01-29T13:28:57.702Z,4090.9
2023-01-29T13:34:33.365Z,4092.9
2023-01-29T13:40:10.822Z,4093.7
2023-01-29T13:45:56.530Z,4101.6
2023-01-29T13:51:55.280Z,4099.9
2023-01-29T13:57:33.312Z,4099.2
2023-01-29T14:03:09.539Z,4099.4
2023-01-29T14:08:45.850Z,4105.1
2023-01-29T14:14:20.982Z,4102.9
2023-01-29T14:20:01.858Z,4101.4
2023-01-29T14:25:57.860Z,4100.4
2023-01-29T14:31:40.793Z,4101.4
2023-01-29T14:37:16.483Z,4102.1
2023-01-29T14:42:52.142Z,4100.9
2023-01-29T14:48:30.716Z,4105.8
2023-01-29T14:54:26.582Z,4100.1
2023-01-29T15:00:11.441Z,4098.6
2023-01-29T15:06:00.401Z,4100.6
2023-01-29T15:11:36.946Z,4096.2
2023-01-29T15:17:23.891Z,4094.4
2023-01-29T15:23:05.729Z,4087.5
2023-01-29T15:28:51.827Z,4087
2023-01-29T15:34:34.132Z,4085.7
2023-01-29T15:40:11.827Z,4085.3
2023-01-29T15:45:48.252Z,4084.2
2023-01-29T15:51:28.222Z,4083
2023-01-29T15:57:11.287Z,4083.5
2023-01-29T16:02:56.078Z,4084.3
2023-01-29T16:08:42.171Z,4084.7
2023-01-29T16:14:19.561Z,4082
2023-01-29T16:19:59.886Z,4082
2023-01-29T16:25:52.281Z,4083
2023-01-29T16:31:29.451Z,4080.6
2023-01-29T16:37:07.333Z,4079
2023-01-29T16:42:43.299Z,4077.8
2023-01-29T16:48:38.194Z,4076.1
2023-01-29T16:54:18.703Z,4075.9
2023-01-29T16:59:59.765Z,4070.9
2023-01-29T17:05:37.951Z,4074.9
2023-01-29T17:11:13.564Z,4074.3
2023-01-29T17:16:57.212Z,4072.4
2023-01-29T17:22:32.569Z,4071.3
2023-01-29T17:28:10.866Z,4070.8
2023-01-29T17:33:48.282Z,4070.1
2023-01-29T17:39:24.094Z,4069.7
2023-01-29T17:45:02.189Z,4072.1
2023-01-29T17:50:42.568Z,4070.6
2023-01-29T17:56:21.178Z,4069.7
2023-01-29T18:01:57.606Z,4072.1
2023-01-29T18:07:41.943Z,4072.8
2023-01-29T18:13:28.804Z,4070.6
2023-01-29T18:19:08.260Z,4073.3
2023-01-29T18:24:54.190Z,4071.4
2023-01-29T18:30:30.051Z,4071.8
2023-01-29T18:36:18.960Z,4074.9
2023-01-29T18:41:58.505Z,4073.6
2023-01-29T18:48:06.136Z,4070.8
2023-01-29T18:53:48.019Z,4076.6
2023-01-29T18:59:59.176Z,4072.9
2023-01-29T19:06:04.073Z,4074.4
2023-01-29T19:11:44.498Z,4074.4
2023-01-29T19:17:28.356Z,4074.3
2023-01-29T19:23:07.897Z,4068.6
2023-01-29T19:29:11.861Z,4070.6
2023-01-29T19:34:48.149Z,4069.4
2023-01-29T19:40:25.179Z,4072.6
2023-01-29T19:46:02.100Z,4070.8
2023-01-29T19:51:37.620Z,4073.9
2023-01-29T19:57:18.017Z,4069.9
2023-01-29T20:03:05.405Z,4070.4
2023-01-29T20:08:52.377Z,4068.1
2023-01-29T20:14:59.310Z,4069.6
2023-01-29T20:20:37.468Z,4068.2
2023-01-29T20:26:30.075Z,4068.6
2023-01-29T20:32:14.786Z,4066.2
2023-01-29T20:38:14.009Z,4068.2
2023-01-29T20:43:55.524Z,4066.9
2023-01-29T20:49:52.125Z,4064.2
2023-01-29T20:55:27.908Z,4064.2
2023-01-29T21:01:04.103Z,4066.1
2023-01-29T21:06:45.038Z,4065.2
2023-01-29T21:12:26.908Z,4066.9
2023-01-29T21:18:41.031Z,4065.9
2023-01-29T21:24:35.485Z,4064.4
2023-01-29T21:30:22.174Z,4061.9
2023-01-29T21:36:14.943Z,4063.2
2023-01-29T21:42:30.659Z,4064.1
2023-01-29T21:48:14.456Z,4065.9
2023-01-29T21:53:53.544Z,4061
2023-01-29T21:59:30.907Z,4059.9
2023-01-29T22:05:25.180Z,4062
2023-01-29T22:11:01.643Z,4060.5
2023-01-29T22:16:41.171Z,4060.5
2023-01-29T22:22:17.487Z,4058.2
2023-01-29T22:27:55.775Z,4059.5
2023-01-29T22:33:33.691Z,4058.7
2023-01-29T22:39:25.096Z,4059.2
2023-01-29T22:45:04.012Z,4057.9
2023-01-29T22:50:54.222Z,4054.7
2023-01-29T22:57:22.301Z,4058.4
2023-01-29T23:03:22.257Z,4055.7
2023-01-29T23:09:47.876Z,4059.4
2023-01-29T23:15:33.332Z,4054.3
2023-01-29T23:21:10.707Z,4055.2
2023-01-29T23:26:47.488Z,4057.5
2023-01-29T23:32:25.937Z,4055.5
2023-01-29T23:38:11.235Z,4055.8
2023-01-29T23:43:52.864Z,4053.5
2023-01-29T23:49:40.569Z,4052.3
2023-01-29T23:55:42.755Z,4055.5
